createdAt,value
2023-03-25T00:00:21.208Z,99990.25
2023-03-25T00:02:52.269Z,99989.38
2023-03-25T00:05:23.233Z,99993.38
2023-03-25T00:07:54.026Z,99996.16
2023-03-25T00:10:22.336Z,99995.50
2023-03-25T00:12:50.886Z,99994.97
2023-03-25T00:15:19.690Z,99998.44
2023-03-25T00:17:47.982Z,99998.34
2023-03-25T00:20:16.491Z,99976.59
2023-03-25T00:22:44.984Z,99985.47
2023-03-25T00:25:17.958Z,99987.75
2023-03-25T00:27:47.897Z,99974.84
2023-03-25T00:30:17.978Z,99973.31
2023-03-25T00:32:49.952Z,99969.56
2023-03-25T00:35:19.683Z,99977.34
2023-03-25T00:37:57.475Z,99976.31
2023-03-25T00:40:28.511Z,99977.06
2023-03-25T00:42:57.221Z,99972.94
2023-03-25T00:45:25.770Z,99967.66
2023-03-25T00:47:54.128Z,99962.78
2023-03-25T00:50:22.688Z,99975.81
2023-03-25T00:52:51.642Z,99968.59
2023-03-25T00:55:20.442Z,99960.22
2023-03-25T00:57:50.280Z,99971.38
2023-03-25T01:00:20.478Z,99968.72
2023-03-25T01:02:54.017Z,99967.44
2023-03-25T01:05:22.695Z,99960.59
2023-03-25T01:07:51.996Z,99963.38
2023-03-25T01:10:20.570Z,99963.56
2023-03-25T01:12:50.481Z,99970.50
2023-03-25T01:15:18.912Z,99963.44
2023-03-25T01:17:47.197Z,99963.09
2023-03-25T01:20:15.477Z,99962.81
2023-03-25T01:22:43.815Z,99958.81
2023-03-25T01:25:12.159Z,99961.19
2023-03-25T01:27:40.479Z,99963.75
2023-03-25T01:30:12.738Z,99961.22
2023-03-25T01:32:41.023Z,99959.94
2023-03-25T01:35:10.985Z,99963.47
2023-03-25T01:37:39.566Z,99959.66
2023-03-25T01:40:10.498Z,99966.63
2023-03-25T01:42:38.737Z,99959.63
2023-03-25T01:45:23.574Z,99965.31
2023-03-25T01:48:00.397Z,99959.63
2023-03-25T01:50:30.099Z,99965.06
2023-03-25T01:53:01.179Z,99956.28
2023-03-25T01:55:30.235Z,99969.28
2023-03-25T01:58:02.043Z,99963.41
2023-03-25T02:00:32.809Z,99962.09
2023-03-25T02:03:03.170Z,99959.13
2023-03-25T02:05:41.169Z,99958.59
2023-03-25T02:08:10.216Z,99956.44
2023-03-25T02:10:39.524Z,99948.84
2023-03-25T02:13:08.776Z,99956.56
2023-03-25T02:15:59.406Z,99959.97
2023-03-25T02:18:45.861Z,99949.06
2023-03-25T02:21:58.536Z,99959.50
2023-03-25T02:25:02.038Z,99957.69
2023-03-25T02:27:48.208Z,99948.38
2023-03-25T02:30:55.262Z,99960.25
2023-03-25T02:34:03.596Z,99953.31
2023-03-25T02:37:12.079Z,99955.56
2023-03-25T02:39:44.842Z,99961.06
2023-03-25T02:42:21.628Z,99957.66
2023-03-25T02:44:58.315Z,99955.13
2023-03-25T02:47:33.053Z,99962.41
2023-03-25T02:50:07.769Z,99956.91
2023-03-25T02:52:40.139Z,99966.63
2023-03-25T02:55:15.125Z,99973.53
2023-03-25T02:57:52.656Z,99966.28
2023-03-25T03:00:27.488Z,99957.00
2023-03-25T03:03:00.211Z,99961.78
2023-03-25T03:05:32.210Z,99967.03
2023-03-25T03:08:20.762Z,99951.19
2023-03-25T03:11:01.499Z,99956.03
2023-03-25T03:13:47.216Z,99954.59
2023-03-25T03:16:27.148Z,99952.25
2023-03-25T03:19:05.986Z,99947.41
2023-03-25T03:21:41.229Z,99943.06
2023-03-25T03:24:17.619Z,99948.22
2023-03-25T03:26:53.336Z,99940.91
2023-03-25T03:29:28.477Z,99938.31
2023-03-25T03:32:06.148Z,99937.75
2023-03-25T03:34:45.056Z,99941.25
2023-03-25T03:37:18.084Z,99937.75
2023-03-25T03:39:49.757Z,99947.06
2023-03-25T03:42:24.924Z,99936.78
2023-03-25T03:44:59.748Z,99939.97
2023-03-25T03:47:33.578Z,99942.50
2023-03-25T03:50:09.350Z,99944.84
2023-03-25T03:52:42.401Z,99948.00
2023-03-25T03:55:15.442Z,99960.16
2023-03-25T03:57:49.655Z,99952.81
2023-03-25T04:00:24.170Z,99945.81
2023-03-25T04:02:58.927Z,99954.47
2023-03-25T04:05:31.003Z,99951.19
2023-03-25T04:08:04.351Z,99955.31
2023-03-25T04:10:40.727Z,99953.59
2023-03-25T04:13:15.149Z,99958.13
2023-03-25T04:15:44.681Z,99954.22
2023-03-25T04:18:13.152Z,99950.78
2023-03-25T04:20:44.710Z,99944.75
2023-03-25T04:23:16.112Z,99957.34
2023-03-25T04:25:47.801Z,99945.09
2023-03-25T04:28:18.188Z,99952.97
2023-03-25T04:30:46.843Z,99949.09
2023-03-25T04:33:15.747Z,99944.00
2023-03-25T04:35:44.354Z,99948.38
2023-03-25T04:38:12.956Z,99943.97
2023-03-25T04:40:46.642Z,99948.72
2023-03-25T04:43:17.471Z,99952.22
2023-03-25T04:45:54.975Z,99956.66
2023-03-25T04:48:30.183Z,99951.88
2023-03-25T04:50:59.457Z,99955.31
2023-03-25T04:53:28.474Z,99941.34
2023-03-25T04:55:57.443Z,99942.31
2023-03-25T04:58:28.857Z,99954.09
2023-03-25T05:00:57.549Z,99963.91
2023-03-25T05:03:26.089Z,99939.25
2023-03-25T05:05:54.820Z,99949.28
2023-03-25T05:08:23.385Z,99942.16
2023-03-25T05:10:52.556Z,99951.91
2023-03-25T05:13:21.407Z,99944.63
2023-03-25T05:15:51.563Z,99947.88
2023-03-25T05:18:20.634Z,99943.38
2023-03-25T05:20:51.008Z,99943.78
2023-03-25T05:23:19.777Z,99943.94
2023-03-25T05:25:50.689Z,99940.75
2023-03-25T05:28:20.236Z,99942.47
2023-03-25T05:30:51.869Z,99941.06
2023-03-25T05:33:20.541Z,99939.09
2023-03-25T05:35:49.712Z,99941.06
2023-03-25T05:38:19.134Z,99949.97
2023-03-25T05:40:48.297Z,99947.63
2023-03-25T05:43:17.289Z,99955.75
2023-03-25T05:45:46.967Z,99961.59
2023-03-25T05:48:16.963Z,99956.00
2023-03-25T05:50:45.528Z,99962.56
2023-03-25T05:53:16.607Z,99953.47
2023-03-25T05:55:47.474Z,99962.78
2023-03-25T05:58:17.523Z,99957.41
2023-03-25T06:00:47.181Z,99956.84
2023-03-25T06:03:18.821Z,99944.09
2023-03-25T06:05:47.660Z,99965.66
2023-03-25T06:08:17.254Z,99955.50
2023-03-25T06:10:48.350Z,99964.00
2023-03-25T06:13:16.923Z,99970.53
2023-03-25T06:15:45.504Z,99963.56
2023-03-25T06:18:14.609Z,99973.66
2023-03-25T06:20:44.676Z,99968.13
2023-03-25T06:23:12.978Z,99977.47
2023-03-25T06:25:41.226Z,99961.59
2023-03-25T06:28:09.528Z,99971.75
2023-03-25T06:30:38.702Z,99971.13
2023-03-25T06:33:07.090Z,99976.31
2023-03-25T06:35:35.447Z,99980.53
2023-03-25T06:38:05.143Z,99977.03
2023-03-25T06:40:34.992Z,99984.81
2023-03-25T06:43:03.316Z,99987.47
2023-03-25T06:45:31.666Z,99994.22
2023-03-25T06:48:00.040Z,100000.63
2023-03-25T06:50:29.004Z,100003.25
2023-03-25T06:52:57.273Z,99993.06
2023-03-25T06:55:27.258Z,99991.69
2023-03-25T06:57:57.076Z,99985.25
2023-03-25T07:00:27.029Z,99990.47
2023-03-25T07:02:55.570Z,99983.69
2023-03-25T07:05:24.007Z,99991.88
2023-03-25T07:07:52.478Z,99983.19
2023-03-25T07:10:21.172Z,99981.41
2023-03-25T07:12:50.856Z,99979.16
2023-03-25T07:15:19.507Z,99977.53
2023-03-25T07:17:49.452Z,99975.81
2023-03-25T07:20:18.632Z,99975.88
2023-03-25T07:22:46.904Z,99972.84
2023-03-25T07:25:15.708Z,99978.69
2023-03-25T07:27:43.977Z,99988.34
2023-03-25T07:30:14.456Z,99978.38
2023-03-25T07:32:42.822Z,99981.00
2023-03-25T07:35:11.224Z,99983.00
2023-03-25T07:37:39.494Z,99984.44
2023-03-25T07:40:10.141Z,99994.16
2023-03-25T07:42:38.672Z,99993.19
2023-03-25T07:45:08.742Z,99996.06
2023-03-25T07:47:38.791Z,99995.13
2023-03-25T07:50:08.945Z,100002.69
2023-03-25T07:52:37.255Z,99998.22
2023-03-25T07:55:06.508Z,100001.97
2023-03-25T07:57:34.787Z,99998.91
2023-03-25T08:00:05.284Z,100006.00
2023-03-25T08:02:33.627Z,100004.41
2023-03-25T08:05:04.911Z,100017.19
2023-03-25T08:07:33.792Z,100009.53
2023-03-25T08:10:02.217Z,100008.97
2023-03-25T08:12:30.662Z,100023.28
2023-03-25T08:15:00.029Z,100018.00
2023-03-25T08:17:28.377Z,100022.25
2023-03-25T08:19:58.063Z,100030.31
2023-03-25T08:22:28.218Z,100040.75
2023-03-25T08:24:56.893Z,100037.19
2023-03-25T08:27:25.774Z,100036.09
2023-03-25T08:29:57.432Z,100026.53
2023-03-25T08:32:27.334Z,100027.56
2023-03-25T08:34:56.173Z,100029.41
2023-03-25T08:37:25.936Z,100025.28
2023-03-25T08:39:56.206Z,100024.72
2023-03-25T08:42:24.529Z,100030.97
2023-03-25T08:44:52.813Z,100027.31
2023-03-25T08:47:21.143Z,100025.22
2023-03-25T08:49:49.465Z,100039.56
2023-03-25T08:52:17.984Z,100031.84
2023-03-25T08:54:46.426Z,100036.16
2023-03-25T08:57:16.179Z,100029.47
2023-03-25T08:59:44.599Z,100029.66
2023-03-25T09:02:13.827Z,100031.06
2023-03-25T09:04:42.369Z,100032.03
2023-03-25T09:07:12.523Z,100015.16
2023-03-25T09:09:41.172Z,100022.75
2023-03-25T09:12:10.214Z,100013.44
2023-03-25T09:14:39.953Z,100021.97
2023-03-25T09:17:10.202Z,100032.19
2023-03-25T09:19:38.854Z,100038.03
2023-03-25T09:22:08.287Z,100030.69
2023-03-25T09:24:36.624Z,100038.03
2023-03-25T09:27:05.452Z,100041.19
2023-03-25T09:29:33.776Z,100032.91
2023-03-25T09:32:03.779Z,100026.66
2023-03-25T09:34:32.358Z,100028.31
2023-03-25T09:37:01.231Z,100023.81
2023-03-25T09:39:29.748Z,100030.63
2023-03-25T09:42:41.084Z,100040.16
2023-03-25T09:45:26.433Z,100036.66
2023-03-25T09:48:01.277Z,100020.25
2023-03-25T09:50:32.605Z,100027.53
2023-03-25T09:53:06.275Z,100023.56
2023-03-25T09:55:41.709Z,100024.78
2023-03-25T09:58:29.459Z,100037.16
2023-03-25T10:01:02.066Z,100029.50
2023-03-25T10:03:38.848Z,100039.09
2023-03-25T10:06:19.801Z,100029.66
2023-03-25T10:09:15.964Z,100032.84
2023-03-25T10:11:54.923Z,100048.88
2023-03-25T10:14:28.681Z,100049.59
2023-03-25T10:17:13.702Z,100035.50
2023-03-25T10:19:58.002Z,100038.25
2023-03-25T10:22:33.369Z,100032.88
2023-03-25T10:25:06.552Z,100040.50
2023-03-25T10:27:38.426Z,100052.19
2023-03-25T10:30:16.249Z,100043.47
2023-03-25T10:32:49.286Z,100063.22
2023-03-25T10:35:24.243Z,100046.94
2023-03-25T10:37:58.181Z,100056.19
2023-03-25T10:40:32.393Z,100060.66
2023-03-25T10:43:17.834Z,100067.94
2023-03-25T10:45:48.596Z,100056.19
2023-03-25T10:48:22.824Z,100061.50
2023-03-25T10:51:00.494Z,100072.91
2023-03-25T10:53:30.549Z,100065.03
2023-03-25T10:56:03.735Z,100063.59
2023-03-25T10:58:33.150Z,100066.34
2023-03-25T11:01:02.055Z,100103.41
2023-03-25T11:03:35.503Z,100086.59
2023-03-25T11:06:06.536Z,100091.47
2023-03-25T11:08:35.856Z,100092.88
2023-03-25T11:11:08.426Z,100082.72
2023-03-25T11:13:37.076Z,100099.28
2023-03-25T11:16:06.687Z,100088.03
2023-03-25T11:18:40.701Z,100080.97
2023-03-25T11:21:15.109Z,100068.22
2023-03-25T11:23:47.845Z,100078.94
2023-03-25T11:26:21.702Z,100075.69
2023-03-25T11:28:53.096Z,100075.31
2023-03-25T11:31:24.695Z,100075.22
2023-03-25T11:34:08.096Z,100074.34
2023-03-25T11:36:40.534Z,100066.06
2023-03-25T11:39:18.949Z,100061.88
2023-03-25T11:41:47.704Z,100061.94
2023-03-25T11:44:25.389Z,100066.03
2023-03-25T11:46:58.558Z,100072.75
2023-03-25T11:49:29.631Z,100078.38
2023-03-25T11:52:08.313Z,100076.22
2023-03-25T11:54:37.960Z,100076.81
2023-03-25T11:57:13.774Z,100080.94
2023-03-25T11:59:46.637Z,100105.72
2023-03-25T12:02:24.924Z,100102.19
2023-03-25T12:05:03.010Z,100097.41
2023-03-25T12:07:43.620Z,100103.09
2023-03-25T12:10:20.479Z,100090.41
2023-03-25T12:13:02.562Z,100098.88
2023-03-25T12:15:41.658Z,100090.66
2023-03-25T12:18:43.534Z,100080.06
2023-03-25T12:21:27.234Z,100079.69
2023-03-25T12:24:15.806Z,100080.53
2023-03-25T12:26:56.064Z,100065.31
2023-03-25T12:29:41.865Z,100076.16
2023-03-25T12:32:27.942Z,100068.41
2023-03-25T12:35:15.270Z,100071.28
2023-03-25T12:38:26.026Z,100059.38
2023-03-25T12:41:17.373Z,100066.88
2023-03-25T12:43:59.760Z,100080.31
2023-03-25T12:46:53.730Z,100059.78
2023-03-25T12:49:47.506Z,100059.22
2023-03-25T12:52:24.708Z,100072.31
2023-03-25T12:55:11.137Z,100049.84
2023-03-25T12:57:57.141Z,100049.69
2023-03-25T13:00:48.814Z,100058.19
2023-03-25T13:03:50.391Z,100066.16
2023-03-25T13:06:27.271Z,100071.72
2023-03-25T13:09:02.265Z,100077.94
2023-03-25T13:11:37.784Z,100117.69
2023-03-25T13:14:13.618Z,100093.19
2023-03-25T13:16:44.914Z,100098.06
2023-03-25T13:19:18.659Z,100092.81
2023-03-25T13:21:52.765Z,100107.41
2023-03-25T13:24:24.216Z,100096.09
2023-03-25T13:26:55.688Z,100102.38
2023-03-25T13:29:31.758Z,100096.59
2023-03-25T13:32:05.004Z,100107.50
2023-03-25T13:34:37.687Z,100091.94
2023-03-25T13:37:12.751Z,100081.19
2023-03-25T13:40:13.785Z,100081.81
2023-03-25T13:42:49.522Z,100076.34
2023-03-25T13:45:21.681Z,100084.34
2023-03-25T13:47:55.294Z,100074.78
2023-03-25T13:50:28.109Z,100079.34
2023-03-25T13:53:03.968Z,100081.25
2023-03-25T13:55:38.355Z,100089.16
2023-03-25T13:58:34.102Z,100086.06
2023-03-25T14:01:44.344Z,100095.34
2023-03-25T14:04:39.017Z,100089.72
2023-03-25T14:07:34.419Z,100076.56
2023-03-25T14:10:23.065Z,100083.03
2023-03-25T14:12:55.289Z,100081.56
2023-03-25T14:15:28.814Z,100075.22
2023-03-25T14:17:59.769Z,100081.84
2023-03-25T14:20:33.515Z,100060.81
2023-03-25T14:23:05.876Z,100082.53
2023-03-25T14:25:39.837Z,100110.91
2023-03-25T14:28:09.658Z,100141.44
2023-03-25T14:30:40.135Z,100118.47
2023-03-25T14:33:12.951Z,100118.72
2023-03-25T14:35:52.005Z,100108.34
2023-03-25T14:38:48.758Z,100102.19
2023-03-25T14:41:17.544Z,100103.28
2023-03-25T14:43:53.917Z,100090.66
2023-03-25T14:46:26.160Z,100093.75
2023-03-25T14:49:21.146Z,100086.44
2023-03-25T14:51:57.922Z,100091.03
2023-03-25T14:54:33.052Z,100099.16
2023-03-25T14:57:07.699Z,100105.78
2023-03-25T14:59:40.488Z,100101.22
2023-03-25T15:02:17.481Z,100111.91
2023-03-25T15:04:53.433Z,100105.78
2023-03-25T15:07:42.972Z,100119.75
2023-03-25T15:10:26.510Z,100129.28
2023-03-25T15:13:01.847Z,100135.28
2023-03-25T15:15:53.248Z,100134.72
2023-03-25T15:18:55.453Z,100116.19
2023-03-25T15:21:26.716Z,100102.13
2023-03-25T15:24:02.533Z,100094.72
2023-03-25T15:26:34.042Z,100088.03
2023-03-25T15:29:38.046Z,100097.41
2023-03-25T15:32:26.045Z,100096.28
2023-03-25T15:35:20.470Z,100095.97
2023-03-25T15:38:32.549Z,100092.28
2023-03-25T15:41:16.071Z,100102.75
2023-03-25T15:44:23.149Z,100096.78
2023-03-25T15:47:30.908Z,100096.53
2023-03-25T15:50:19.469Z,100110.13
2023-03-25T15:53:04.513Z,100097.56
2023-03-25T15:55:40.194Z,100092.06
2023-03-25T15:58:18.219Z,100096.88
2023-03-25T16:00:51.659Z,100090.41
2023-03-25T16:03:24.082Z,100087.94
2023-03-25T16:05:56.279Z,100091.19
2023-03-25T16:08:37.211Z,100092.56
2023-03-25T16:11:27.072Z,100096.16
2023-03-25T16:14:12.520Z,100100.22
2023-03-25T16:16:45.312Z,100089.69
2023-03-25T16:19:19.326Z,100094.56
2023-03-25T16:21:50.873Z,100095.34
2023-03-25T16:24:21.575Z,100098.91
2023-03-25T16:26:52.812Z,100087.56
2023-03-25T16:29:23.320Z,100090.75
2023-03-25T16:31:57.602Z,100101.66
2023-03-25T16:34:26.696Z,100095.34
2023-03-25T16:36:56.848Z,100093.22
2023-03-25T16:39:26.231Z,100098.41
2023-03-25T16:42:06.444Z,100113.44
2023-03-25T16:44:35.542Z,100115.69
2023-03-25T16:47:04.498Z,100117.16
2023-03-25T16:49:35.805Z,100118.59
2023-03-25T16:52:11.830Z,100119.28
2023-03-25T16:54:48.847Z,100125.56
2023-03-25T16:57:20.691Z,100118.94
2023-03-25T16:59:52.196Z,100120.50
2023-03-25T17:02:29.229Z,100119.38
2023-03-25T17:05:16.308Z,100126.84
2023-03-25T17:07:46.140Z,100135.44
2023-03-25T17:10:22.901Z,100124.41
2023-03-25T17:12:57.947Z,100139.03
2023-03-25T17:15:28.058Z,100130.84
2023-03-25T17:18:01.352Z,100135.44
2023-03-25T17:20:36.214Z,100144.88
2023-03-25T17:23:08.384Z,100156.53
2023-03-25T17:25:49.876Z,100155.66
2023-03-25T17:28:29.652Z,100144.44
2023-03-25T17:30:58.270Z,100157.00
2023-03-25T17:33:35.402Z,100157.53
2023-03-25T17:36:10.414Z,100160.28
2023-03-25T17:38:44.960Z,100166.97
2023-03-25T17:41:15.635Z,100179.41
2023-03-25T17:43:49.191Z,100169.66
2023-03-25T17:46:22.094Z,100190.84
2023-03-25T17:48:53.606Z,100193.91
2023-03-25T17:51:22.780Z,100193.31
2023-03-25T17:53:52.056Z,100192.81
2023-03-25T17:56:25.145Z,100208.06
2023-03-25T17:59:00.387Z,100211.78
2023-03-25T18:01:30.692Z,100209.06
2023-03-25T18:03:59.831Z,100221.81
2023-03-25T18:06:28.402Z,100221.81
2023-03-25T18:08:57.008Z,100225.78
2023-03-25T18:11:25.677Z,100229.44
2023-03-25T18:13:56.096Z,100230.47
2023-03-25T18:16:25.005Z,100239.22
2023-03-25T18:18:53.660Z,100242.41
2023-03-25T18:21:23.319Z,100244.94
2023-03-25T18:23:52.395Z,100240.00
2023-03-25T18:26:21.414Z,100238.47
2023-03-25T18:28:50.203Z,100235.63
2023-03-25T18:31:22.432Z,100247.81
2023-03-25T18:33:51.883Z,100243.22
2023-03-25T18:36:20.599Z,100247.81
2023-03-25T18:38:49.453Z,100250.59
2023-03-25T18:41:18.272Z,100248.50
2023-03-25T18:43:46.905Z,100252.56
2023-03-25T18:46:16.480Z,100254.53
2023-03-25T18:48:46.569Z,100261.69
2023-03-25T18:51:15.673Z,100251.78
2023-03-25T18:53:44.256Z,100255.78
2023-03-25T18:56:12.873Z,100258.34
2023-03-25T18:58:41.425Z,100260.03
2023-03-25T19:01:13.613Z,100252.75
2023-03-25T19:03:42.296Z,100259.59
2023-03-25T19:06:14.166Z,100268.09
2023-03-25T19:08:44.390Z,100258.06
2023-03-25T19:11:20.793Z,100254.75
2023-03-25T19:13:50.960Z,100252.22
2023-03-25T19:16:19.826Z,100253.38
2023-03-25T19:18:48.559Z,100246.84
2023-03-25T19:21:20.317Z,100258.75
2023-03-25T19:23:49.089Z,100258.53
2023-03-25T19:26:17.728Z,100274.78
2023-03-25T19:28:46.280Z,100268.00
2023-03-25T19:31:16.456Z,100265.38
2023-03-25T19:33:45.175Z,100262.94
2023-03-25T19:36:16.118Z,100258.38
2023-03-25T19:38:46.205Z,100265.50
2023-03-25T19:41:16.763Z,100275.25
2023-03-25T19:43:45.484Z,100278.97
2023-03-25T19:46:14.106Z,100280.44
2023-03-25T19:48:42.647Z,100290.34
2023-03-25T19:51:11.238Z,100277.91
2023-03-25T19:53:39.792Z,100283.34
2023-03-25T19:56:13.939Z,100286.72
2023-03-25T19:58:42.626Z,100295.53
2023-03-25T20:01:11.303Z,100305.06
2023-03-25T20:03:41.187Z,100326.25
2023-03-25T20:06:10.099Z,100322.59
2023-03-25T20:08:38.654Z,100338.28
2023-03-25T20:11:12.376Z,100333.38
2023-03-25T20:13:41.084Z,100329.16
2023-03-25T20:16:10.214Z,100346.91
2023-03-25T20:18:41.270Z,100338.78
2023-03-25T20:21:10.178Z,100315.28
2023-03-25T20:23:38.822Z,100318.66
2023-03-25T20:26:07.669Z,100300.66
2023-03-25T20:28:37.775Z,100305.44
2023-03-25T20:31:21.206Z,100302.69
2023-03-25T20:33:49.977Z,100306.56
2023-03-25T20:36:19.148Z,100311.28
2023-03-25T20:38:56.664Z,100285.41
2023-03-25T20:41:27.307Z,100295.09
2023-03-25T20:43:57.206Z,100309.16
2023-03-25T20:46:31.384Z,100299.44
2023-03-25T20:49:01.938Z,100298.00
2023-03-25T20:51:30.543Z,100290.50
2023-03-25T20:53:59.081Z,100300.00
2023-03-25T20:56:27.705Z,100293.06
2023-03-25T20:58:57.585Z,100300.88
2023-03-25T21:01:26.229Z,100306.41
2023-03-25T21:03:54.805Z,100322.25
2023-03-25T21:06:26.658Z,100345.00
2023-03-25T21:08:59.459Z,100392.81
2023-03-25T21:11:29.646Z,100393.78
2023-03-25T21:13:59.735Z,100368.53
2023-03-25T21:16:28.485Z,100378.06
2023-03-25T21:19:01.693Z,100369.22
2023-03-25T21:21:30.708Z,100378.69
2023-03-25T21:23:59.279Z,100372.63
2023-03-25T21:26:27.833Z,100367.47
2023-03-25T21:28:59.831Z,100355.28
2023-03-25T21:31:29.543Z,100360.34
2023-03-25T21:33:59.025Z,100357.72
2023-03-25T21:36:29.817Z,100356.94
2023-03-25T21:39:00.227Z,100355.78
2023-03-25T21:41:30.460Z,100357.50
2023-03-25T21:44:00.803Z,100340.91
2023-03-25T21:46:29.651Z,100350.47
2023-03-25T21:48:59.370Z,100346.44
2023-03-25T21:51:30.395Z,100366.28
2023-03-25T21:54:00.406Z,100368.97
2023-03-25T21:56:31.348Z,100357.00
2023-03-25T21:59:01.835Z,100352.75
2023-03-25T22:01:30.766Z,100366.19
2023-03-25T22:04:00.604Z,100370.47
2023-03-25T22:06:31.023Z,100364.59
2023-03-25T22:09:05.064Z,100364.34
2023-03-25T22:11:34.797Z,100365.09
2023-03-25T22:14:06.349Z,100346.91
2023-03-25T22:16:35.111Z,100343.56
2023-03-25T22:19:04.160Z,100345.25
2023-03-25T22:21:36.994Z,100353.81
2023-03-25T22:24:07.307Z,100359.59
2023-03-25T22:26:39.250Z,100364.41
2023-03-25T22:29:10.791Z,100372.13
2023-03-25T22:31:40.557Z,100368.28
2023-03-25T22:34:15.213Z,100364.59
2023-03-25T22:36:50.271Z,100365.53
2023-03-25T22:39:20.597Z,100370.59
2023-03-25T22:41:49.541Z,100368.88
2023-03-25T22:44:19.924Z,100370.66
2023-03-25T22:46:49.604Z,100371.88
2023-03-25T22:49:18.730Z,100370.19
2023-03-25T22:51:47.338Z,100369.59
2023-03-25T22:54:16.250Z,100381.88
2023-03-25T22:56:45.003Z,100381.31
2023-03-25T22:59:14.822Z,100380.00
2023-03-25T23:01:45.013Z,100378.16
2023-03-25T23:04:13.953Z,100381.91
2023-03-25T23:06:45.282Z,100389.41
2023-03-25T23:09:38.028Z,100394.66
2023-03-25T23:12:06.943Z,100387.72
2023-03-25T23:14:35.490Z,100395.63
2023-03-25T23:17:05.471Z,100384.59
2023-03-25T23:19:34.004Z,100394.56
2023-03-25T23:22:02.942Z,100394.56
2023-03-25T23:24:31.623Z,100390.19
2023-03-25T23:27:00.208Z,100398.84
2023-03-25T23:29:28.749Z,100392.78
2023-03-25T23:31:57.279Z,100391.94
2023-03-25T23:34:27.196Z,100393.06
2023-03-25T23:36:56.577Z,100398.09
2023-03-25T23:39:27.863Z,100397.97
2023-03-25T23:41:57.205Z,100404.22
2023-03-25T23:44:25.741Z,100391.47
2023-03-25T23:46:54.323Z,100397.69
2023-03-25T23:49:22.959Z,100397.00
2023-03-25T23:51:53.153Z,100401.38
2023-03-25T23:54:21.847Z,100403.78
2023-03-25T23:56:50.449Z,100394.75
2023-03-25T23:59:19.113Z,100404.38
